Witchford, United Kingdom
Current Conditions -  °F | °C
As of 11:08 PM on Monday 22 Dec 2014 (Local Time) from EGUN Reporting Station
Scattered Clouds Scattered Clouds  
Wind Chill: 52°   Ceiling: Unl
Heat Index: 52°   Visibility: 6mi
Dew Point: 46°   Wind: 20mph
Humidity: 82%   Direction: 240°WSW
Pressure: 29.94"   Gusts: 30mph
Location:  52.39°N, 0.21°E
Report Text: EGUN 222308Z AUTO 24017G26KT 9999 SCT021 11/08 A2994 RMK AO2
Loading
Personal Weather Stations






























Interactive Weather Map New forecast layout! Learn more

10-Day Weather Forecast

Advertisements
Track Severe Weather on mobile